createdAt,value
2023-02-11T00:00:26.129Z,9.07
2023-02-11T00:00:57.477Z,8.45
2023-02-11T00:01:30.749Z,9.73
2023-02-11T00:02:02.110Z,8.35
2023-02-11T00:02:33.650Z,8.88
2023-02-11T00:03:05.093Z,11.77
2023-02-11T00:03:36.477Z,11.02
2023-02-11T00:04:07.992Z,8.52
2023-02-11T00:04:39.316Z,9.70
2023-02-11T00:05:10.825Z,8.02
2023-02-11T00:05:42.136Z,10.90
2023-02-11T00:06:13.466Z,7.63
2023-02-11T00:06:44.827Z,8.00
2023-02-11T00:07:16.150Z,8.93
2023-02-11T00:07:47.557Z,11.43
2023-02-11T00:08:18.894Z,9.23
2023-02-11T00:08:50.299Z,9.57
2023-02-11T00:09:21.631Z,10.20
2023-02-11T00:09:52.985Z,9.30
2023-02-11T00:10:24.343Z,9.25
2023-02-11T00:10:56.422Z,6.43
2023-02-11T00:11:28.356Z,9.15
2023-02-11T00:11:59.746Z,9.67
2023-02-11T00:12:31.085Z,9.38
2023-02-11T00:13:02.458Z,7.75
2023-02-11T00:13:33.918Z,10.43
2023-02-11T00:14:06.288Z,8.13
2023-02-11T00:14:37.608Z,9.05
2023-02-11T00:15:09.545Z,10.80
2023-02-11T00:15:40.885Z,7.03
2023-02-11T00:16:13.555Z,7.18
2023-02-11T00:16:44.923Z,7.73
2023-02-11T00:17:16.461Z,12.65
2023-02-11T00:17:47.892Z,9.18
2023-02-11T00:18:19.283Z,15.35
2023-02-11T00:18:50.639Z,9.57
2023-02-11T00:19:22.009Z,10.82
2023-02-11T00:19:53.409Z,8.40
2023-02-11T00:20:24.725Z,10.60
2023-02-11T00:20:56.061Z,12.63
2023-02-11T00:21:27.796Z,8.68
2023-02-11T00:21:59.133Z,10.02
2023-02-11T00:22:30.756Z,7.27
2023-02-11T00:23:02.092Z,8.07
2023-02-11T00:23:33.430Z,12.75
2023-02-11T00:24:04.898Z,6.88
2023-02-11T00:24:36.458Z,9.77
2023-02-11T00:25:07.896Z,8.95
2023-02-11T00:25:42.693Z,12.13
2023-02-11T00:26:18.817Z,9.10
2023-02-11T00:26:50.160Z,10.15
2023-02-11T00:27:21.491Z,9.80
2023-02-11T00:27:52.828Z,12.85
2023-02-11T00:28:24.225Z,10.73
2023-02-11T00:28:55.567Z,9.93
2023-02-11T00:29:26.912Z,7.60
2023-02-11T00:29:58.213Z,9.85
2023-02-11T00:30:29.587Z,11.63
2023-02-11T00:31:01.115Z,8.77
2023-02-11T00:31:32.864Z,10.32
2023-02-11T00:32:05.051Z,7.93
2023-02-11T00:32:37.082Z,7.65
2023-02-11T00:33:08.434Z,12.95
2023-02-11T00:33:39.816Z,10.48
2023-02-11T00:34:11.378Z,8.70
2023-02-11T00:34:42.730Z,7.72
2023-02-11T00:35:14.175Z,10.20
2023-02-11T00:35:45.545Z,9.35
2023-02-11T00:36:21.379Z,12.05
2023-02-11T00:36:52.704Z,9.45
2023-02-11T00:37:24.054Z,8.57
2023-02-11T00:37:55.679Z,10.27
2023-02-11T00:38:27.008Z,11.27
2023-02-11T00:38:59.189Z,9.52
2023-02-11T00:39:30.601Z,10.13
2023-02-11T00:40:05.626Z,10.50
2023-02-11T00:40:37.978Z,11.40
2023-02-11T00:41:09.310Z,14.23
2023-02-11T00:41:40.951Z,8.55
2023-02-11T00:42:14.228Z,10.65
2023-02-11T00:42:45.614Z,8.90
2023-02-11T00:43:16.942Z,9.23
2023-02-11T00:43:48.582Z,11.93
2023-02-11T00:44:19.924Z,10.93
2023-02-11T00:44:51.262Z,9.25
2023-02-11T00:45:22.584Z,12.30
2023-02-11T00:45:54.004Z,10.23
2023-02-11T00:46:25.386Z,10.80
2023-02-11T00:46:56.769Z,15.77
2023-02-11T00:47:28.149Z,10.52
2023-02-11T00:47:59.495Z,7.45
2023-02-11T00:48:30.866Z,11.05
2023-02-11T00:49:02.205Z,9.30
2023-02-11T00:49:33.629Z,10.18
2023-02-11T00:50:05.739Z,9.32
2023-02-11T00:50:37.086Z,9.15
2023-02-11T00:51:08.884Z,8.80
2023-02-11T00:51:40.241Z,10.00
2023-02-11T00:52:11.580Z,11.02
2023-02-11T00:52:42.932Z,5.95
2023-02-11T00:53:14.296Z,8.30
2023-02-11T00:53:45.638Z,9.05
2023-02-11T00:54:16.976Z,7.65
2023-02-11T00:54:48.312Z,8.88
2023-02-11T00:55:19.698Z,12.18
2023-02-11T00:55:51.352Z,12.30
2023-02-11T00:56:22.993Z,9.02
2023-02-11T00:56:54.334Z,8.23
2023-02-11T00:57:25.776Z,10.88
2023-02-11T00:57:57.092Z,7.28
2023-02-11T00:58:28.759Z,9.05
2023-02-11T00:59:00.116Z,12.85
2023-02-11T00:59:31.518Z,7.43
2023-02-11T01:00:03.918Z,9.65
2023-02-11T01:00:35.371Z,11.60
2023-02-11T01:01:06.780Z,9.80
2023-02-11T01:01:38.156Z,9.10
2023-02-11T01:02:09.505Z,7.32
2023-02-11T01:02:40.841Z,12.57
2023-02-11T01:03:12.192Z,7.28
2023-02-11T01:03:43.556Z,8.90
2023-02-11T01:04:14.973Z,6.85
2023-02-11T01:04:46.318Z,9.27
2023-02-11T01:05:17.842Z,10.80
2023-02-11T01:05:49.524Z,11.02
2023-02-11T01:06:21.265Z,12.43
2023-02-11T01:06:52.759Z,9.23
2023-02-11T01:07:24.087Z,4.38
2023-02-11T01:07:55.450Z,5.68
2023-02-11T01:08:26.919Z,10.35
2023-02-11T01:08:58.259Z,12.50
2023-02-11T01:09:29.590Z,9.05
2023-02-11T01:10:00.936Z,5.75
2023-02-11T01:10:32.449Z,12.45
2023-02-11T01:11:05.491Z,10.23
2023-02-11T01:11:36.837Z,9.18
2023-02-11T01:12:08.156Z,10.63
2023-02-11T01:12:39.690Z,14.30
2023-02-11T01:13:11.309Z,10.27
2023-02-11T01:13:43.174Z,10.98
2023-02-11T01:14:14.567Z,12.02
2023-02-11T01:14:45.930Z,8.95
2023-02-11T01:15:18.571Z,8.52
2023-02-11T01:15:50.264Z,10.70
2023-02-11T01:16:21.929Z,13.13
2023-02-11T01:16:53.329Z,8.52
2023-02-11T01:17:24.741Z,10.25
2023-02-11T01:17:56.060Z,8.63
2023-02-11T01:18:27.676Z,11.33
2023-02-11T01:18:59.062Z,9.15
2023-02-11T01:19:30.400Z,8.38
2023-02-11T01:20:03.920Z,6.22
2023-02-11T01:20:35.357Z,7.95
2023-02-11T01:21:06.691Z,9.75
2023-02-11T01:21:38.204Z,7.63
2023-02-11T01:22:09.541Z,8.25
2023-02-11T01:22:40.897Z,7.70
2023-02-11T01:23:12.385Z,6.75
2023-02-11T01:23:43.774Z,9.90
2023-02-11T01:24:15.170Z,8.88
2023-02-11T01:24:46.499Z,14.40
2023-02-11T01:25:17.913Z,7.43
2023-02-11T01:25:49.603Z,8.88
2023-02-11T01:26:21.202Z,8.52
2023-02-11T01:26:52.553Z,4.25
2023-02-11T01:27:23.884Z,7.97
2023-02-11T01:27:55.256Z,10.02
2023-02-11T01:28:27.935Z,9.18
2023-02-11T01:28:59.329Z,9.32
2023-02-11T01:29:30.680Z,6.68
2023-02-11T01:30:02.051Z,6.65
2023-02-11T01:30:33.375Z,8.57
2023-02-11T01:31:04.821Z,9.80
2023-02-11T01:31:36.329Z,6.13
2023-02-11T01:32:07.790Z,8.40
2023-02-11T01:32:39.505Z,6.53
2023-02-11T01:33:10.831Z,10.80
2023-02-11T01:33:42.395Z,9.87
2023-02-11T01:34:14.128Z,5.30
2023-02-11T01:34:45.470Z,5.35
2023-02-11T01:35:16.894Z,10.70
2023-02-11T01:35:48.473Z,6.85
2023-02-11T01:36:20.099Z,6.38
2023-02-11T01:36:51.427Z,9.45
2023-02-11T01:37:23.196Z,8.60
2023-02-11T01:37:54.531Z,6.70
2023-02-11T01:38:26.251Z,6.90
2023-02-11T01:38:58.083Z,7.10
2023-02-11T01:39:32.472Z,8.18
2023-02-11T01:40:08.085Z,5.55
2023-02-11T01:40:39.415Z,8.55
2023-02-11T01:41:11.736Z,7.78
2023-02-11T01:41:43.065Z,8.07
2023-02-11T01:42:18.469Z,10.43
2023-02-11T01:42:51.112Z,7.05
2023-02-11T01:43:23.998Z,9.07
2023-02-11T01:43:55.341Z,7.65
2023-02-11T01:44:29.204Z,5.43
2023-02-11T01:45:01.532Z,8.40
2023-02-11T01:45:45.020Z,6.57
2023-02-11T01:46:19.434Z,6.78
2023-02-11T01:46:51.002Z,9.23
2023-02-11T01:47:22.359Z,11.40
2023-02-11T01:47:53.727Z,11.48
2023-02-11T01:48:31.961Z,5.70
2023-02-11T01:49:09.497Z,7.15
2023-02-11T01:49:45.826Z,9.27
2023-02-11T01:50:17.222Z,7.97
2023-02-11T01:50:50.440Z,6.68
2023-02-11T01:51:25.044Z,6.20
2023-02-11T01:51:59.273Z,11.68
2023-02-11T01:52:35.757Z,6.15
2023-02-11T01:53:07.406Z,8.13
2023-02-11T01:53:38.860Z,8.35
2023-02-11T01:54:12.042Z,11.02
2023-02-11T01:54:46.158Z,6.00
2023-02-11T01:55:17.503Z,4.75
2023-02-11T01:55:49.323Z,4.47
2023-02-11T01:56:21.247Z,7.25
2023-02-11T01:56:54.944Z,6.53
2023-02-11T01:57:28.151Z,7.63
2023-02-11T01:58:00.820Z,9.70
2023-02-11T01:58:33.153Z,7.93
2023-02-11T01:59:07.161Z,6.10
2023-02-11T01:59:41.324Z,8.50
2023-02-11T02:00:18.122Z,4.78
2023-02-11T02:00:49.873Z,10.07
2023-02-11T02:01:23.098Z,6.25
2023-02-11T02:01:57.237Z,6.50
2023-02-11T02:02:40.628Z,4.97
2023-02-11T02:03:19.780Z,11.40
2023-02-11T02:03:53.097Z,7.43
2023-02-11T02:04:27.964Z,6.55
2023-02-11T02:05:14.659Z,6.35
2023-02-11T02:05:53.082Z,8.00
2023-02-11T02:06:30.282Z,6.35
2023-02-11T02:07:20.991Z,5.05
2023-02-11T02:07:56.551Z,7.90
2023-02-11T02:08:40.504Z,5.47
2023-02-11T02:09:22.785Z,5.60
2023-02-11T02:09:58.487Z,6.73
2023-02-11T02:10:30.849Z,8.18
2023-02-11T02:11:02.779Z,4.90
2023-02-11T02:11:34.374Z,8.10
2023-02-11T02:12:05.901Z,3.65
2023-02-11T02:12:37.276Z,5.60
2023-02-11T02:13:09.120Z,4.88
2023-02-11T02:13:40.503Z,5.40
2023-02-11T02:14:11.840Z,7.63
2023-02-11T02:14:43.214Z,5.70
2023-02-11T02:15:25.415Z,6.15
2023-02-11T02:15:56.782Z,6.97
2023-02-11T02:16:37.687Z,5.22
2023-02-11T02:17:24.592Z,5.57
2023-02-11T02:18:07.854Z,4.65
2023-02-11T02:18:44.916Z,5.57
2023-02-11T02:19:29.990Z,5.30
2023-02-11T02:20:30.901Z,5.82
2023-02-11T02:21:05.015Z,6.40
2023-02-11T02:21:42.243Z,3.90
2023-02-11T02:22:13.566Z,5.70
2023-02-11T02:23:03.635Z,4.82
2023-02-11T02:23:52.435Z,4.90
2023-02-11T02:24:42.551Z,3.85
2023-02-11T02:25:28.904Z,4.07
2023-02-11T02:26:10.575Z,4.53
2023-02-11T02:27:02.622Z,4.45
2023-02-11T02:27:37.038Z,5.30
2023-02-11T02:28:11.454Z,5.18
2023-02-11T02:28:54.868Z,6.13
2023-02-11T02:29:29.234Z,3.95
2023-02-11T02:30:19.373Z,6.97
2023-02-11T02:30:50.741Z,4.20
2023-02-11T02:31:22.073Z,6.43
2023-02-11T02:32:03.597Z,1.98
2023-02-11T02:32:44.212Z,5.43
2023-02-11T02:33:24.685Z,5.05
2023-02-11T02:34:00.574Z,3.53
2023-02-11T02:34:31.880Z,4.38
2023-02-11T02:35:15.458Z,5.10
2023-02-11T02:35:51.782Z,4.75
2023-02-11T02:36:43.503Z,5.00
2023-02-11T02:37:17.965Z,2.67
2023-02-11T02:37:54.162Z,2.97
2023-02-11T02:38:31.316Z,3.22
2023-02-11T02:39:13.238Z,4.45
2023-02-11T02:39:45.748Z,2.35
2023-02-11T02:40:21.126Z,3.80
2023-02-11T02:40:54.853Z,2.38
2023-02-11T02:41:30.574Z,3.70
2023-02-11T02:42:03.416Z,3.60
2023-02-11T02:42:35.036Z,4.68
2023-02-11T02:43:07.649Z,3.28
2023-02-11T02:43:41.522Z,4.20
2023-02-11T02:44:12.852Z,2.58
2023-02-11T02:44:50.457Z,1.95
2023-02-11T02:45:21.825Z,2.30
2023-02-11T02:45:53.483Z,2.50
2023-02-11T02:46:32.061Z,4.47
2023-02-11T02:47:03.527Z,2.83
2023-02-11T02:47:34.871Z,2.40
2023-02-11T02:48:06.267Z,2.97
2023-02-11T02:48:37.596Z,2.50
2023-02-11T02:49:15.351Z,1.70
2023-02-11T02:49:46.835Z,1.83
2023-02-11T02:50:21.928Z,1.67
2023-02-11T02:50:59.297Z,2.78
2023-02-11T02:51:42.659Z,3.47
2023-02-11T02:52:32.605Z,3.53
2023-02-11T02:53:11.737Z,3.33
2023-02-11T02:53:58.307Z,3.05
2023-02-11T02:54:29.632Z,2.30
2023-02-11T02:55:04.015Z,0.90
2023-02-11T02:55:38.521Z,3.50
2023-02-11T02:56:14.720Z,2.90
2023-02-11T02:56:49.466Z,3.28
2023-02-11T02:57:20.802Z,2.95
2023-02-11T02:58:01.476Z,1.10
2023-02-11T02:58:38.674Z,1.27
2023-02-11T02:59:27.313Z,1.33
2023-02-11T03:00:17.258Z,3.17
2023-02-11T03:00:48.584Z,3.03
2023-02-11T03:01:30.107Z,1.20
2023-02-11T03:02:20.078Z,1.25
2023-02-11T03:03:03.412Z,1.97
2023-02-11T03:03:43.071Z,1.80
2023-02-11T03:04:14.409Z,2.03
2023-02-11T03:05:03.914Z,1.58
2023-02-11T03:05:35.226Z,2.47
2023-02-11T03:06:21.923Z,2.55
2023-02-11T03:07:01.431Z,1.95
2023-02-11T03:07:35.611Z,2.08
2023-02-11T03:08:10.114Z,2.30
2023-02-11T03:08:44.082Z,1.13
2023-02-11T03:09:19.967Z,2.25
2023-02-11T03:10:00.329Z,1.55
2023-02-11T03:10:34.223Z,0.97
2023-02-11T03:11:06.083Z,0.85
2023-02-11T03:11:37.520Z,1.13
2023-02-11T03:12:09.937Z,1.52
2023-02-11T03:12:42.079Z,1.08
2023-02-11T03:13:14.480Z,1.48
2023-02-11T03:13:46.791Z,2.35
2023-02-11T03:14:18.962Z,2.55
2023-02-11T03:14:51.570Z,1.20
2023-02-11T03:15:25.096Z,2.00
2023-02-11T03:15:57.635Z,0.95
2023-02-11T03:16:29.694Z,0.75
2023-02-11T03:17:02.469Z,0.60
2023-02-11T03:17:34.925Z,1.15
2023-02-11T03:18:08.547Z,0.90
2023-02-11T03:18:41.337Z,1.30
2023-02-11T03:19:14.576Z,0.82
2023-02-11T03:19:48.116Z,1.58
2023-02-11T03:20:21.271Z,1.08
2023-02-11T03:20:54.357Z,1.70
2023-02-11T03:21:25.735Z,0.88
2023-02-11T03:21:57.556Z,1.80
2023-02-11T03:22:40.943Z,0.75
2023-02-11T03:23:18.877Z,1.65
2023-02-11T03:23:52.956Z,0.70
2023-02-11T03:24:29.518Z,2.15
2023-02-11T03:25:01.659Z,1.65
2023-02-11T03:25:37.032Z,1.98
2023-02-11T03:26:10.850Z,1.17
2023-02-11T03:26:56.134Z,0.77
2023-02-11T03:27:31.128Z,1.10
2023-02-11T03:28:23.338Z,1.53
2023-02-11T03:28:59.578Z,0.90
2023-02-11T03:29:34.211Z,0.57
2023-02-11T03:30:08.752Z,0.70
2023-02-11T03:30:44.559Z,0.63
2023-02-11T03:31:16.034Z,1.17
2023-02-11T03:31:52.909Z,0.60
2023-02-11T03:32:24.276Z,1.17
2023-02-11T03:32:57.386Z,1.57
2023-02-11T03:33:30.831Z,3.47
2023-02-11T03:34:22.510Z,0.37
2023-02-11T03:35:03.896Z,0.73
2023-02-11T03:35:43.598Z,2.08
2023-02-11T03:36:17.394Z,0.60
2023-02-11T03:36:54.457Z,1.75
2023-02-11T03:37:28.636Z,1.52
2023-02-11T03:38:02.259Z,0.50
2023-02-11T03:38:37.438Z,1.30
2023-02-11T03:39:09.922Z,1.10
2023-02-11T03:39:45.589Z,0.77
2023-02-11T03:40:21.346Z,1.53
2023-02-11T03:40:54.414Z,0.65
2023-02-11T03:41:25.953Z,1.23
2023-02-11T03:41:59.489Z,0.73
2023-02-11T03:42:34.284Z,1.63
2023-02-11T03:43:05.588Z,0.80
2023-02-11T03:43:40.358Z,0.60
2023-02-11T03:44:13.749Z,0.90
2023-02-11T03:44:53.687Z,1.00
2023-02-11T03:45:26.031Z,0.70
2023-02-11T03:45:58.506Z,0.93
2023-02-11T03:46:34.417Z,0.40
2023-02-11T03:47:07.399Z,0.50
2023-02-11T03:47:40.353Z,1.10
2023-02-11T03:48:14.359Z,0.60
2023-02-11T03:48:49.271Z,0.90
2023-02-11T03:49:22.201Z,0.68
2023-02-11T03:49:54.584Z,0.93
2023-02-11T03:50:26.887Z,0.85
2023-02-11T03:50:58.625Z,1.33
2023-02-11T03:51:30.752Z,1.55
2023-02-11T03:52:03.131Z,1.10
2023-02-11T03:52:36.026Z,1.35
2023-02-11T03:53:07.803Z,1.10
2023-02-11T03:53:41.068Z,1.15
2023-02-11T03:54:14.994Z,0.82
2023-02-11T03:54:48.413Z,0.70
2023-02-11T03:55:20.884Z,5.35
2023-02-11T03:55:53.988Z,5.85
2023-02-11T03:56:26.761Z,2.50
2023-02-11T03:56:59.284Z,1.30
2023-02-11T03:57:30.665Z,0.60
2023-02-11T03:58:02.021Z,1.10
2023-02-11T03:58:33.374Z,0.80
2023-02-11T03:59:04.715Z,1.17
2023-02-11T03:59:51.946Z,1.35
2023-02-11T04:00:29.895Z,0.73
2023-02-11T04:01:01.301Z,0.70
2023-02-11T04:01:32.734Z,0.95
2023-02-11T04:02:04.104Z,1.42
2023-02-11T04:02:36.549Z,0.98
2023-02-11T04:03:08.808Z,0.80
2023-02-11T04:03:40.194Z,0.90
2023-02-11T04:04:11.704Z,1.73
2023-02-11T04:04:43.128Z,0.95
2023-02-11T04:05:15.439Z,0.90
2023-02-11T04:05:46.813Z,1.10
2023-02-11T04:06:18.287Z,0.70
2023-02-11T04:06:49.642Z,0.93
2023-02-11T04:07:20.993Z,1.38
2023-02-11T04:07:52.333Z,1.20
2023-02-11T04:08:23.710Z,1.00
2023-02-11T04:08:55.042Z,1.48
2023-02-11T04:09:26.374Z,1.30
2023-02-11T04:09:57.716Z,0.93
2023-02-11T04:10:29.219Z,1.27
2023-02-11T04:11:00.688Z,1.02
2023-02-11T04:11:32.020Z,1.10
2023-02-11T04:12:03.523Z,0.73
2023-02-11T04:12:34.873Z,0.82
2023-02-11T04:13:06.288Z,1.10
2023-02-11T04:13:37.658Z,0.57
2023-02-11T04:14:09.005Z,1.33
2023-02-11T04:14:40.495Z,0.70
2023-02-11T04:15:11.830Z,1.63
2023-02-11T04:15:43.194Z,0.60
2023-02-11T04:16:14.639Z,0.68
2023-02-11T04:16:46.014Z,1.00
2023-02-11T04:17:17.582Z,0.80
2023-02-11T04:17:48.952Z,1.77
2023-02-11T04:18:20.303Z,0.73
2023-02-11T04:18:51.638Z,1.05
2023-02-11T04:19:22.980Z,1.27
2023-02-11T04:19:54.288Z,0.87
2023-02-11T04:20:25.638Z,0.85
2023-02-11T04:20:56.975Z,0.73
2023-02-11T04:21:28.389Z,1.75
2023-02-11T04:21:59.725Z,0.90
2023-02-11T04:22:31.236Z,0.90
2023-02-11T04:23:02.593Z,0.77
2023-02-11T04:23:33.902Z,1.42
2023-02-11T04:24:05.356Z,1.00
2023-02-11T04:24:36.706Z,1.85
2023-02-11T04:25:08.399Z,0.80
2023-02-11T04:25:39.750Z,1.20
2023-02-11T04:26:11.101Z,1.00
2023-02-11T04:26:42.433Z,1.07
2023-02-11T04:27:13.799Z,0.95
2023-02-11T04:27:45.128Z,1.10
2023-02-11T04:28:16.534Z,0.90
2023-02-11T04:28:47.874Z,1.52
2023-02-11T04:29:19.313Z,1.10
2023-02-11T04:29:50.650Z,0.73
2023-02-11T04:30:22.214Z,1.08
2023-02-11T04:30:53.605Z,0.63
2023-02-11T04:31:25.079Z,1.25
2023-02-11T04:31:56.642Z,0.88
2023-02-11T04:32:28.037Z,1.30
2023-02-11T04:32:59.371Z,1.27
2023-02-11T04:33:30.711Z,1.75
2023-02-11T04:34:02.068Z,1.20
2023-02-11T04:34:33.451Z,1.00
2023-02-11T04:35:05.095Z,0.90
2023-02-11T04:35:36.430Z,0.88
2023-02-11T04:36:07.987Z,1.33
2023-02-11T04:36:39.317Z,2.08
2023-02-11T04:37:10.700Z,1.08
2023-02-11T04:37:42.071Z,1.30
2023-02-11T04:38:13.473Z,1.95
2023-02-11T04:38:44.798Z,1.13
2023-02-11T04:39:16.150Z,1.00
2023-02-11T04:39:47.634Z,1.10
2023-02-11T04:40:19.015Z,0.82
2023-02-11T04:40:50.882Z,1.30
2023-02-11T04:41:22.232Z,1.20
2023-02-11T04:41:53.551Z,1.05
2023-02-11T04:42:25.041Z,2.05
2023-02-11T04:42:56.371Z,1.85
2023-02-11T04:43:27.910Z,1.20
2023-02-11T04:43:59.253Z,0.90
2023-02-11T04:44:30.612Z,1.08
2023-02-11T04:45:01.943Z,1.00
2023-02-11T04:45:33.382Z,1.23
2023-02-11T04:46:04.804Z,1.13
2023-02-11T04:46:36.158Z,1.15
2023-02-11T04:47:07.762Z,1.52
2023-02-11T04:47:39.150Z,1.20
2023-02-11T04:48:10.482Z,1.10
2023-02-11T04:48:41.808Z,1.00
2023-02-11T04:49:13.948Z,1.15
2023-02-11T04:49:45.310Z,0.80
2023-02-11T04:50:16.723Z,1.10
2023-02-11T04:50:48.076Z,1.38
2023-02-11T04:51:19.392Z,0.80
2023-02-11T04:51:50.710Z,0.90
2023-02-11T04:52:22.045Z,1.38
2023-02-11T04:52:53.404Z,1.27
2023-02-11T04:53:24.767Z,1.02
2023-02-11T04:53:56.092Z,1.00
2023-02-11T04:54:27.465Z,1.45
2023-02-11T04:54:58.806Z,1.38
2023-02-11T04:55:30.128Z,1.77
2023-02-11T04:56:01.484Z,1.40
2023-02-11T04:56:32.815Z,1.17
2023-02-11T04:57:04.154Z,2.17
2023-02-11T04:57:35.495Z,1.20
2023-02-11T04:58:06.853Z,2.05
2023-02-11T04:58:38.178Z,1.42
2023-02-11T04:59:09.616Z,1.90
2023-02-11T04:59:40.948Z,1.45
2023-02-11T05:00:13.054Z,1.92
2023-02-11T05:00:44.504Z,1.20
2023-02-11T05:01:16.291Z,1.60
2023-02-11T05:01:47.676Z,1.10
2023-02-11T05:02:19.013Z,1.70
2023-02-11T05:02:50.389Z,1.15
2023-02-11T05:03:21.780Z,1.52
2023-02-11T05:03:53.180Z,1.55
2023-02-11T05:04:24.687Z,1.70
2023-02-11T05:04:56.049Z,1.63
2023-02-11T05:05:27.379Z,1.52
2023-02-11T05:05:58.727Z,1.98
2023-02-11T05:06:30.085Z,1.60
2023-02-11T05:07:01.434Z,2.35
2023-02-11T05:07:32.739Z,2.10
2023-02-11T05:08:04.184Z,1.70
2023-02-11T05:08:35.588Z,2.28
2023-02-11T05:09:06.969Z,1.85
2023-02-11T05:09:38.325Z,1.20
2023-02-11T05:10:09.714Z,2.40
2023-02-11T05:10:45.434Z,1.58
2023-02-11T05:11:18.390Z,0.95
2023-02-11T05:11:49.868Z,1.47
2023-02-11T05:12:21.235Z,1.70
2023-02-11T05:12:55.310Z,1.25
2023-02-11T05:13:27.192Z,1.27
2023-02-11T05:13:58.553Z,1.50
2023-02-11T05:14:29.923Z,1.23
2023-02-11T05:15:01.258Z,1.02
2023-02-11T05:15:32.634Z,1.13
2023-02-11T05:16:04.105Z,2.13
2023-02-11T05:16:35.556Z,1.25
2023-02-11T05:17:07.228Z,1.52
2023-02-11T05:17:38.544Z,1.40
2023-02-11T05:18:09.944Z,1.42
2023-02-11T05:18:42.041Z,0.93
2023-02-11T05:19:13.502Z,1.23
2023-02-11T05:19:44.837Z,2.20
2023-02-11T05:20:16.268Z,1.13
2023-02-11T05:20:47.681Z,1.60
2023-02-11T05:21:19.205Z,1.27
2023-02-11T05:22:02.251Z,1.48
2023-02-11T05:22:34.579Z,1.90
2023-02-11T05:23:05.903Z,1.38
2023-02-11T05:23:37.263Z,1.13
2023-02-11T05:24:08.622Z,1.85
2023-02-11T05:24:39.984Z,1.40
2023-02-11T05:25:11.320Z,1.75
2023-02-11T05:25:42.643Z,2.05
2023-02-11T05:26:14.195Z,1.48
2023-02-11T05:26:45.541Z,1.65
2023-02-11T05:27:16.896Z,1.58
2023-02-11T05:27:48.216Z,1.67
2023-02-11T05:28:19.647Z,1.55
2023-02-11T05:28:50.986Z,1.55
2023-02-11T05:29:22.308Z,1.30
2023-02-11T05:29:53.673Z,2.30
2023-02-11T05:30:25.014Z,1.57
2023-02-11T05:30:56.451Z,2.35
2023-02-11T05:31:27.850Z,1.95
2023-02-11T05:31:59.639Z,1.45
2023-02-11T05:32:31.006Z,1.40
2023-02-11T05:33:02.330Z,1.33
2023-02-11T05:33:33.714Z,1.67
2023-02-11T05:34:05.013Z,1.58
2023-02-11T05:34:36.407Z,1.85
2023-02-11T05:35:07.936Z,1.77
2023-02-11T05:35:39.265Z,1.85
2023-02-11T05:36:11.627Z,1.73
2023-02-11T05:36:42.970Z,1.90
2023-02-11T05:37:14.361Z,2.65
2023-02-11T05:37:45.698Z,2.30
2023-02-11T05:38:17.209Z,1.70
2023-02-11T05:38:48.540Z,1.63
2023-02-11T05:39:20.037Z,1.42
2023-02-11T05:39:51.377Z,1.80
2023-02-11T05:40:22.760Z,1.42
2023-02-11T05:40:54.297Z,1.63
2023-02-11T05:41:25.620Z,1.45
2023-02-11T05:41:56.972Z,1.67
2023-02-11T05:42:28.302Z,2.08
2023-02-11T05:42:59.634Z,1.63
2023-02-11T05:43:31.236Z,1.67
2023-02-11T05:44:02.570Z,1.60
2023-02-11T05:44:33.918Z,1.63
2023-02-11T05:45:05.414Z,2.00
2023-02-11T05:45:36.756Z,2.15
2023-02-11T05:46:08.175Z,1.47
2023-02-11T05:46:39.623Z,1.98
2023-02-11T05:47:11.042Z,1.65
2023-02-11T05:47:42.353Z,1.27
2023-02-11T05:48:13.700Z,1.70
2023-02-11T05:48:45.172Z,1.75
2023-02-11T05:49:16.946Z,1.50
2023-02-11T05:49:48.292Z,1.90
2023-02-11T05:50:20.071Z,1.85
2023-02-11T05:50:51.477Z,1.83
2023-02-11T05:51:23.055Z,1.05
2023-02-11T05:51:54.390Z,1.67
2023-02-11T05:52:25.756Z,1.70
2023-02-11T05:52:57.105Z,1.10
2023-02-11T05:53:28.654Z,1.25
2023-02-11T05:54:00.001Z,1.92
2023-02-11T05:54:31.379Z,1.77
2023-02-11T05:55:02.713Z,3.20
2023-02-11T05:55:34.123Z,1.50
2023-02-11T05:56:05.718Z,1.95
2023-02-11T05:56:37.075Z,2.05
2023-02-11T05:57:08.440Z,2.22
2023-02-11T05:57:39.772Z,1.55
2023-02-11T05:58:11.116Z,2.40
2023-02-11T05:58:42.460Z,1.73
2023-02-11T05:59:14.254Z,1.55
2023-02-11T05:59:45.606Z,1.15
2023-02-11T06:00:17.056Z,1.85
2023-02-11T06:00:48.431Z,2.00
2023-02-11T06:01:19.785Z,2.13
2023-02-11T06:01:51.111Z,2.20
2023-02-11T06:02:22.487Z,1.92
2023-02-11T06:02:54.042Z,1.40
2023-02-11T06:03:25.484Z,1.75
2023-02-11T06:03:56.961Z,1.30
2023-02-11T06:04:28.419Z,2.07
2023-02-11T06:04:59.794Z,1.27
2023-02-11T06:05:31.317Z,1.65
2023-02-11T06:06:02.663Z,1.80
2023-02-11T06:06:34.010Z,1.70
2023-02-11T06:07:05.331Z,2.30
2023-02-11T06:07:36.687Z,2.30
2023-02-11T06:08:08.025Z,1.40
2023-02-11T06:08:39.663Z,1.40
2023-02-11T06:09:11.060Z,1.45
2023-02-11T06:09:42.433Z,1.17
2023-02-11T06:10:13.886Z,1.50
2023-02-11T06:10:45.768Z,2.42
2023-02-11T06:11:17.715Z,1.92
2023-02-11T06:11:49.082Z,1.65
2023-02-11T06:12:20.444Z,1.20
2023-02-11T06:12:51.793Z,1.40
2023-02-11T06:13:23.128Z,1.33
2023-02-11T06:13:54.464Z,1.40
2023-02-11T06:14:25.800Z,1.67
2023-02-11T06:14:57.134Z,1.85
2023-02-11T06:15:28.646Z,2.00
2023-02-11T06:16:00.889Z,1.88
2023-02-11T06:16:32.332Z,1.55
2023-02-11T06:17:04.044Z,1.40
2023-02-11T06:17:35.585Z,2.50
2023-02-11T06:18:07.369Z,1.52
2023-02-11T06:18:38.933Z,1.60
2023-02-11T06:19:10.735Z,1.30
2023-02-11T06:19:42.058Z,2.47
2023-02-11T06:20:13.480Z,1.88
2023-02-11T06:20:44.865Z,1.83
2023-02-11T06:21:16.222Z,2.38
2023-02-11T06:21:47.564Z,3.95
2023-02-11T06:22:19.094Z,1.90
2023-02-11T06:22:50.434Z,1.77
2023-02-11T06:23:22.021Z,1.60
2023-02-11T06:23:53.554Z,1.60
2023-02-11T06:24:51.065Z,1.63
2023-02-11T06:25:16.312Z,1.33
2023-02-11T06:25:47.681Z,2.05
2023-02-11T06:26:20.272Z,1.88
2023-02-11T06:26:51.646Z,1.67
2023-02-11T06:27:23.128Z,1.48
2023-02-11T06:27:54.460Z,2.30
2023-02-11T06:28:25.796Z,1.67
2023-02-11T06:28:59.904Z,1.40
2023-02-11T06:29:31.251Z,2.53
2023-02-11T06:30:03.272Z,1.80
2023-02-11T06:30:35.940Z,1.88
2023-02-11T06:31:07.622Z,2.35
2023-02-11T06:31:39.210Z,3.40
2023-02-11T06:32:28.169Z,2.10
2023-02-11T06:33:02.254Z,2.45
2023-02-11T06:33:34.400Z,1.70
2023-02-11T06:34:05.786Z,1.48
2023-02-11T06:34:37.108Z,1.38
2023-02-11T06:35:10.751Z,2.20
2023-02-11T06:35:43.190Z,1.45
2023-02-11T06:36:16.057Z,1.85
2023-02-11T06:36:47.451Z,2.53
2023-02-11T06:37:18.766Z,1.92
2023-02-11T06:37:50.148Z,1.80
2023-02-11T06:38:21.500Z,1.48
2023-02-11T06:38:52.867Z,2.28
2023-02-11T06:39:24.212Z,1.73
2023-02-11T06:39:55.565Z,2.55
2023-02-11T06:40:27.229Z,2.75
2023-02-11T06:40:58.588Z,3.15
2023-02-11T06:41:29.999Z,2.25
2023-02-11T06:42:01.334Z,2.03
2023-02-11T06:42:32.807Z,1.92
2023-02-11T06:43:04.196Z,1.80
2023-02-11T06:43:35.536Z,1.50
2023-02-11T06:44:07.016Z,1.90
2023-02-11T06:44:38.407Z,1.77
2023-02-11T06:45:09.887Z,2.70
2023-02-11T06:45:41.224Z,2.08
2023-02-11T06:46:12.643Z,1.67
2023-02-11T06:46:44.120Z,1.70
2023-02-11T06:47:15.466Z,2.00
2023-02-11T06:47:47.078Z,1.30
2023-02-11T06:48:18.430Z,2.05
2023-02-11T06:48:49.801Z,1.80
2023-02-11T06:49:21.173Z,2.10
2023-02-11T06:49:52.502Z,1.67
2023-02-11T06:50:23.867Z,1.25
2023-02-11T06:50:55.218Z,1.30
2023-02-11T06:51:26.595Z,1.73
2023-02-11T06:51:57.971Z,1.25
2023-02-11T06:52:29.318Z,2.17
2023-02-11T06:53:00.887Z,1.98
2023-02-11T06:53:32.589Z,2.28
2023-02-11T06:54:05.165Z,2.90
2023-02-11T06:54:36.507Z,2.63
2023-02-11T06:55:07.935Z,3.58
2023-02-11T06:55:39.278Z,2.30
2023-02-11T06:56:12.410Z,3.35
2023-02-11T06:56:43.821Z,2.42
2023-02-11T06:57:15.177Z,2.10
2023-02-11T06:57:46.523Z,3.13
2023-02-11T06:58:17.870Z,2.53
2023-02-11T06:58:52.208Z,2.40
2023-02-11T06:59:23.525Z,1.70
2023-02-11T06:59:54.864Z,1.97
2023-02-11T07:00:26.220Z,2.30
2023-02-11T07:00:57.585Z,4.20
2023-02-11T07:01:28.978Z,2.70
2023-02-11T07:02:00.366Z,3.30
2023-02-11T07:02:31.864Z,2.25
2023-02-11T07:03:03.410Z,2.20
2023-02-11T07:03:35.655Z,3.35
2023-02-11T07:04:07.026Z,2.45
2023-02-11T07:04:38.401Z,3.97
2023-02-11T07:05:09.844Z,2.20
2023-02-11T07:05:44.226Z,2.20
2023-02-11T07:06:17.377Z,2.97
2023-02-11T07:06:48.701Z,3.00
2023-02-11T07:07:20.068Z,3.20
2023-02-11T07:07:51.403Z,2.60
2023-02-11T07:08:22.740Z,2.35
2023-02-11T07:08:54.623Z,2.60
2023-02-11T07:09:26.026Z,3.20
2023-02-11T07:09:57.379Z,2.83
2023-02-11T07:10:28.963Z,2.72
2023-02-11T07:11:00.326Z,2.95
2023-02-11T07:11:31.782Z,3.17
2023-02-11T07:12:03.265Z,3.67
2023-02-11T07:12:34.717Z,2.97
2023-02-11T07:13:06.025Z,4.00
2023-02-11T07:13:37.390Z,4.47
2023-02-11T07:14:08.804Z,4.10
2023-02-11T07:14:40.389Z,3.75
2023-02-11T07:15:11.740Z,3.58
2023-02-11T07:15:43.113Z,3.13
2023-02-11T07:16:15.688Z,4.10
2023-02-11T07:16:47.048Z,3.08